sensor_id;sensor_type;location;lat;lon;timestamp;temperature;humidity
21778;DHT22;11050;52.222;20.916;2023-05-27T00:02:23;9.70;90.20
21778;DHT22;11050;52.222;20.916;2023-05-27T00:04:49;9.70;90.60
21778;DHT22;11050;52.222;20.916;2023-05-27T00:07:15;9.60;90.90
21778;DHT22;11050;52.222;20.916;2023-05-27T00:09:40;9.60;91.70
21778;DHT22;11050;52.222;20.916;2023-05-27T00:12:06;9.60;92.00
21778;DHT22;11050;52.222;20.916;2023-05-27T00:14:32;9.50;92.50
21778;DHT22;11050;52.222;20.916;2023-05-27T00:16:57;9.50;93.30
21778;DHT22;11050;52.222;20.916;2023-05-27T00:19:24;9.40;93.70
21778;DHT22;11050;52.222;20.916;2023-05-27T00:21:50;9.40;94.30
21778;DHT22;11050;52.222;20.916;2023-05-27T00:24:18;9.30;95.10
21778;DHT22;11050;52.222;20.916;2023-05-27T00:26:45;9.30;96.20
21778;DHT22;11050;52.222;20.916;2023-05-27T00:29:11;9.30;96.90
21778;DHT22;11050;52.222;20.916;2023-05-27T00:31:36;9.30;97.30
21778;DHT22;11050;52.222;20.916;2023-05-27T00:34:02;9.30;97.80
21778;DHT22;11050;52.222;20.916;2023-05-27T00:36:28;9.30;98.70
21778;DHT22;11050;52.222;20.916;2023-05-27T00:38:54;9.20;99.20
21778;DHT22;11050;52.222;20.916;2023-05-27T00:41:20;9.20;99.80
21778;DHT22;11050;52.222;20.916;2023-05-27T00:43:46;9.10;99.90
21778;DHT22;11050;52.222;20.916;2023-05-27T00:46:12;9.10;99.90
21778;DHT22;11050;52.222;20.916;2023-05-27T00:48:38;9.10;99.90
21778;DHT22;11050;52.222;20.916;2023-05-27T00:51:04;9.00;99.90
21778;DHT22;11050;52.222;20.916;2023-05-27T00:53:38;8.90;99.90
21778;DHT22;11050;52.222;20.916;2023-05-27T00:56:09;8.90;99.90
21778;DHT22;11050;52.222;20.916;2023-05-27T00:58:36;8.80;99.90
21778;DHT22;11050;52.222;20.916;2023-05-27T01:01:03;8.80;99.90
21778;DHT22;11050;52.222;20.916;2023-05-27T01:03:31;8.80;99.90
21778;DHT22;11050;52.222;20.916;2023-05-27T01:09:13;8.70;99.90
21778;DHT22;11050;52.222;20.916;2023-05-27T01:12:06;8.60;99.90
21778;DHT22;11050;52.222;20.916;2023-05-27T01:14:38;8.60;99.90
21778;DHT22;11050;52.222;20.916;2023-05-27T01:17:06;8.60;99.90
21778;DHT22;11050;52.222;20.916;2023-05-27T01:19:36;8.50;99.90
21778;DHT22;11050;52.222;20.916;2023-05-27T01:22:12;8.50;99.90
21778;DHT22;11050;52.222;20.916;2023-05-27T01:24:39;8.50;99.90
21778;DHT22;11050;52.222;20.916;2023-05-27T01:27:07;8.40;99.90
21778;DHT22;11050;52.222;20.916;2023-05-27T01:29:40;8.40;99.90
21778;DHT22;11050;52.222;20.916;2023-05-27T01:32:18;8.40;99.90
21778;DHT22;11050;52.222;20.916;2023-05-27T01:34:59;8.30;99.90
21778;DHT22;11050;52.222;20.916;2023-05-27T01:37:37;8.30;99.90
21778;DHT22;11050;52.222;20.916;2023-05-27T01:40:08;8.20;99.90
21778;DHT22;11050;52.222;20.916;2023-05-27T01:42:35;8.20;99.90
21778;DHT22;11050;52.222;20.916;2023-05-27T01:45:05;8.20;99.90
21778;DHT22;11050;52.222;20.916;2023-05-27T01:47:33;8.10;99.90
21778;DHT22;11050;52.222;20.916;2023-05-27T01:49:59;8.10;99.90
21778;DHT22;11050;52.222;20.916;2023-05-27T01:52:25;8.10;99.90
21778;DHT22;11050;52.222;20.916;2023-05-27T01:54:51;8.00;99.90
21778;DHT22;11050;52.222;20.916;2023-05-27T01:57:18;8.00;99.90
21778;DHT22;11050;52.222;20.916;2023-05-27T01:59:44;8.00;99.90
21778;DHT22;11050;52.222;20.916;2023-05-27T02:02:10;8.00;99.90
21778;DHT22;11050;52.222;20.916;2023-05-27T02:04:36;7.90;99.90
21778;DHT22;11050;52.222;20.916;2023-05-27T02:07:02;7.90;99.90
21778;DHT22;11050;52.222;20.916;2023-05-27T02:09:28;7.80;99.90
21778;DHT22;11050;52.222;20.916;2023-05-27T02:11:54;7.80;99.90
21778;DHT22;11050;52.222;20.916;2023-05-27T02:14:20;7.80;99.90
21778;DHT22;11050;52.222;20.916;2023-05-27T02:16:47;7.80;99.90
21778;DHT22;11050;52.222;20.916;2023-05-27T02:19:15;7.80;99.90
21778;DHT22;11050;52.222;20.916;2023-05-27T02:21:41;7.70;99.90
21778;DHT22;11050;52.222;20.916;2023-05-27T02:24:07;7.70;99.90
21778;DHT22;11050;52.222;20.916;2023-05-27T02:26:33;7.70;99.90
21778;DHT22;11050;52.222;20.916;2023-05-27T02:28:59;7.70;99.90
21778;DHT22;11050;52.222;20.916;2023-05-27T02:31:25;7.70;99.90
21778;DHT22;11050;52.222;20.916;2023-05-27T02:33:51;7.60;99.90
21778;DHT22;11050;52.222;20.916;2023-05-27T02:36:17;7.60;99.90
21778;DHT22;11050;52.222;20.916;2023-05-27T02:38:42;7.60;99.90
21778;DHT22;11050;52.222;20.916;2023-05-27T02:41:09;7.60;99.90
21778;DHT22;11050;52.222;20.916;2023-05-27T02:43:35;7.60;99.90
21778;DHT22;11050;52.222;20.916;2023-05-27T02:46:01;7.60;99.90
21778;DHT22;11050;52.222;20.916;2023-05-27T02:48:26;7.60;99.90
21778;DHT22;11050;52.222;20.916;2023-05-27T02:50:52;7.60;99.90
21778;DHT22;11050;52.222;20.916;2023-05-27T02:53:18;7.60;99.90
21778;DHT22;11050;52.222;20.916;2023-05-27T02:55:43;7.50;99.90
21778;DHT22;11050;52.222;20.916;2023-05-27T02:58:09;7.60;99.90
21778;DHT22;11050;52.222;20.916;2023-05-27T03:00:35;7.60;99.90
21778;DHT22;11050;52.222;20.916;2023-05-27T03:03:01;7.60;99.90
21778;DHT22;11050;52.222;20.916;2023-05-27T03:05:30;7.60;99.90
21778;DHT22;11050;52.222;20.916;2023-05-27T03:07:56;7.60;99.90
21778;DHT22;11050;52.222;20.916;2023-05-27T03:10:21;7.50;99.90
21778;DHT22;11050;52.222;20.916;2023-05-27T03:12:47;7.60;99.90
21778;DHT22;11050;52.222;20.916;2023-05-27T03:15:13;7.60;99.90
21778;DHT22;11050;52.222;20.916;2023-05-27T03:17:40;7.60;99.90
21778;DHT22;11050;52.222;20.916;2023-05-27T03:20:06;7.60;99.90
21778;DHT22;11050;52.222;20.916;2023-05-27T03:22:36;7.50;99.90
21778;DHT22;11050;52.222;20.916;2023-05-27T03:25:02;7.60;99.90
21778;DHT22;11050;52.222;20.916;2023-05-27T03:27:28;7.60;99.90
21778;DHT22;11050;52.222;20.916;2023-05-27T03:29:54;7.60;99.90
21778;DHT22;11050;52.222;20.916;2023-05-27T03:32:20;7.60;99.90
21778;DHT22;11050;52.222;20.916;2023-05-27T03:34:46;7.60;99.90
21778;DHT22;11050;52.222;20.916;2023-05-27T03:37:11;7.70;99.90
21778;DHT22;11050;52.222;20.916;2023-05-27T03:39:39;7.70;99.90
21778;DHT22;11050;52.222;20.916;2023-05-27T03:42:05;7.70;99.90
21778;DHT22;11050;52.222;20.916;2023-05-27T03:44:32;7.70;99.90
21778;DHT22;11050;52.222;20.916;2023-05-27T03:46:58;7.70;99.90
21778;DHT22;11050;52.222;20.916;2023-05-27T03:49:23;7.80;99.90
21778;DHT22;11050;52.222;20.916;2023-05-27T03:51:49;7.80;99.90
21778;DHT22;11050;52.222;20.916;2023-05-27T03:54:15;7.80;99.90
21778;DHT22;11050;52.222;20.916;2023-05-27T03:56:40;7.80;99.90
21778;DHT22;11050;52.222;20.916;2023-05-27T03:59:06;7.90;99.90
21778;DHT22;11050;52.222;20.916;2023-05-27T04:01:32;7.90;99.90
21778;DHT22;11050;52.222;20.916;2023-05-27T04:03:58;8.00;99.90
21778;DHT22;11050;52.222;20.916;2023-05-27T04:06:24;8.00;99.90
21778;DHT22;11050;52.222;20.916;2023-05-27T04:08:50;8.10;99.90
21778;DHT22;11050;52.222;20.916;2023-05-27T04:11:15;8.10;99.90
21778;DHT22;11050;52.222;20.916;2023-05-27T04:13:41;8.20;99.90
21778;DHT22;11050;52.222;20.916;2023-05-27T04:16:07;8.20;99.90
21778;DHT22;11050;52.222;20.916;2023-05-27T04:18:33;8.30;99.90
21778;DHT22;11050;52.222;20.916;2023-05-27T04:21:01;8.30;99.90
21778;DHT22;11050;52.222;20.916;2023-05-27T04:23:26;8.40;99.90
21778;DHT22;11050;52.222;20.916;2023-05-27T04:25:52;8.50;99.90
21778;DHT22;11050;52.222;20.916;2023-05-27T04:28:18;8.50;99.90
21778;DHT22;11050;52.222;20.916;2023-05-27T04:30:44;8.60;99.90
21778;DHT22;11050;52.222;20.916;2023-05-27T04:33:14;8.60;99.90
21778;DHT22;11050;52.222;20.916;2023-05-27T04:35:40;8.70;99.90
21778;DHT22;11050;52.222;20.916;2023-05-27T04:38:12;8.80;99.90
21778;DHT22;11050;52.222;20.916;2023-05-27T04:40:44;8.80;99.90
21778;DHT22;11050;52.222;20.916;2023-05-27T04:43:11;8.90;99.90
21778;DHT22;11050;52.222;20.916;2023-05-27T04:45:39;9.00;99.90
21778;DHT22;11050;52.222;20.916;2023-05-27T04:48:05;9.10;99.90
21778;DHT22;11050;52.222;20.916;2023-05-27T04:50:31;9.20;99.90
21778;DHT22;11050;52.222;20.916;2023-05-27T04:52:57;9.30;99.90
21778;DHT22;11050;52.222;20.916;2023-05-27T04:55:23;9.30;99.90
21778;DHT22;11050;52.222;20.916;2023-05-27T04:57:49;9.40;99.90
21778;DHT22;11050;52.222;20.916;2023-05-27T05:00:15;9.50;99.90
21778;DHT22;11050;52.222;20.916;2023-05-27T05:02:48;9.60;99.90
21778;DHT22;11050;52.222;20.916;2023-05-27T05:05:14;9.70;99.90
21778;DHT22;11050;52.222;20.916;2023-05-27T05:07:41;9.70;99.90
21778;DHT22;11050;52.222;20.916;2023-05-27T05:10:12;9.80;99.90
21778;DHT22;11050;52.222;20.916;2023-05-27T05:12:38;9.90;99.90
21778;DHT22;11050;52.222;20.916;2023-05-27T05:15:05;9.90;99.90
21778;DHT22;11050;52.222;20.916;2023-05-27T05:17:31;10.10;99.90
21778;DHT22;11050;52.222;20.916;2023-05-27T05:19:56;10.10;99.90
21778;DHT22;11050;52.222;20.916;2023-05-27T05:22:22;10.20;99.90
21778;DHT22;11050;52.222;20.916;2023-05-27T05:24:51;10.30;99.90
21778;DHT22;11050;52.222;20.916;2023-05-27T05:27:17;10.40;99.90
21778;DHT22;11050;52.222;20.916;2023-05-27T05:29:43;10.50;99.90
21778;DHT22;11050;52.222;20.916;2023-05-27T05:32:10;10.60;99.90
21778;DHT22;11050;52.222;20.916;2023-05-27T05:34:37;10.80;99.90
21778;DHT22;11050;52.222;20.916;2023-05-27T05:37:03;10.80;99.90
21778;DHT22;11050;52.222;20.916;2023-05-27T05:39:30;11.00;99.90
21778;DHT22;11050;52.222;20.916;2023-05-27T05:41:56;11.00;99.90
21778;DHT22;11050;52.222;20.916;2023-05-27T05:44:23;11.10;99.90
21778;DHT22;11050;52.222;20.916;2023-05-27T05:46:49;11.20;99.90
21778;DHT22;11050;52.222;20.916;2023-05-27T05:49:15;11.30;99.90
21778;DHT22;11050;52.222;20.916;2023-05-27T05:51:42;11.40;99.90
21778;DHT22;11050;52.222;20.916;2023-05-27T05:54:08;11.50;99.90
21778;DHT22;11050;52.222;20.916;2023-05-27T05:56:33;11.50;99.90
21778;DHT22;11050;52.222;20.916;2023-05-27T05:58:59;11.60;99.90
21778;DHT22;11050;52.222;20.916;2023-05-27T06:01:26;11.80;99.90
21778;DHT22;11050;52.222;20.916;2023-05-27T06:03:55;11.80;99.90
21778;DHT22;11050;52.222;20.916;2023-05-27T06:06:22;11.90;99.90
21778;DHT22;11050;52.222;20.916;2023-05-27T06:08:47;11.90;99.90
21778;DHT22;11050;52.222;20.916;2023-05-27T06:11:13;12.10;99.90
21778;DHT22;11050;52.222;20.916;2023-05-27T06:13:40;12.10;99.90
21778;DHT22;11050;52.222;20.916;2023-05-27T06:16:06;12.20;99.90
21778;DHT22;11050;52.222;20.916;2023-05-27T06:18:32;12.30;99.90
21778;DHT22;11050;52.222;20.916;2023-05-27T06:20:58;12.40;99.90
21778;DHT22;11050;52.222;20.916;2023-05-27T06:23:24;12.50;99.90
21778;DHT22;11050;52.222;20.916;2023-05-27T06:25:49;12.60;99.90
21778;DHT22;11050;52.222;20.916;2023-05-27T06:28:15;12.70;99.90
21778;DHT22;11050;52.222;20.916;2023-05-27T06:30:41;12.70;99.90
21778;DHT22;11050;52.222;20.916;2023-05-27T06:33:08;12.80;99.90
21778;DHT22;11050;52.222;20.916;2023-05-27T06:35:33;12.90;99.90
21778;DHT22;11050;52.222;20.916;2023-05-27T06:38:00;13.00;99.90
21778;DHT22;11050;52.222;20.916;2023-05-27T06:40:25;13.10;99.90
21778;DHT22;11050;52.222;20.916;2023-05-27T06:42:51;13.20;99.90
21778;DHT22;11050;52.222;20.916;2023-05-27T06:45:18;13.30;99.90
21778;DHT22;11050;52.222;20.916;2023-05-27T06:47:43;13.40;99.90
21778;DHT22;11050;52.222;20.916;2023-05-27T06:50:09;13.60;99.90
21778;DHT22;11050;52.222;20.916;2023-05-27T06:52:35;13.60;99.90
21778;DHT22;11050;52.222;20.916;2023-05-27T06:55:01;13.70;99.90
21778;DHT22;11050;52.222;20.916;2023-05-27T06:57:27;13.80;99.90
21778;DHT22;11050;52.222;20.916;2023-05-27T06:59:52;13.90;99.90
21778;DHT22;11050;52.222;20.916;2023-05-27T07:02:18;14.00;99.80
21778;DHT22;11050;52.222;20.916;2023-05-27T07:04:44;14.00;99.20
21778;DHT22;11050;52.222;20.916;2023-05-27T07:07:09;14.10;98.40
21778;DHT22;11050;52.222;20.916;2023-05-27T07:09:35;14.20;97.50
21778;DHT22;11050;52.222;20.916;2023-05-27T07:12:01;14.30;97.00
21778;DHT22;11050;52.222;20.916;2023-05-27T07:14:27;14.30;96.90
21778;DHT22;11050;52.222;20.916;2023-05-27T07:16:53;14.30;96.30
21778;DHT22;11050;52.222;20.916;2023-05-27T07:19:18;14.50;95.70
21778;DHT22;11050;52.222;20.916;2023-05-27T07:21:44;14.60;95.00
21778;DHT22;11050;52.222;20.916;2023-05-27T07:24:10;14.80;93.30
21778;DHT22;11050;52.222;20.916;2023-05-27T07:26:36;14.80;93.00
21778;DHT22;11050;52.222;20.916;2023-05-27T07:29:02;14.90;92.50
21778;DHT22;11050;52.222;20.916;2023-05-27T07:31:29;15.00;90.90
21778;DHT22;11050;52.222;20.916;2023-05-27T07:33:55;15.10;90.70
21778;DHT22;11050;52.222;20.916;2023-05-27T07:36:21;15.10;90.60
21778;DHT22;11050;52.222;20.916;2023-05-27T07:38:46;15.20;90.00
21778;DHT22;11050;52.222;20.916;2023-05-27T07:41:12;15.30;87.50
21778;DHT22;11050;52.222;20.916;2023-05-27T07:43:39;15.30;87.50
21778;DHT22;11050;52.222;20.916;2023-05-27T07:46:05;15.50;87.20
21778;DHT22;11050;52.222;20.916;2023-05-27T07:48:31;15.60;85.70
21778;DHT22;11050;52.222;20.916;2023-05-27T07:50:57;15.70;83.70
21778;DHT22;11050;52.222;20.916;2023-05-27T07:53:22;15.80;81.00
21778;DHT22;11050;52.222;20.916;2023-05-27T07:55:48;15.90;75.80
21778;DHT22;11050;52.222;20.916;2023-05-27T07:58:14;15.90;74.00
21778;DHT22;11050;52.222;20.916;2023-05-27T08:00:40;15.90;75.90
21778;DHT22;11050;52.222;20.916;2023-05-27T08:03:06;16.00;75.80
21778;DHT22;11050;52.222;20.916;2023-05-27T08:05:32;16.10;75.10
21778;DHT22;11050;52.222;20.916;2023-05-27T08:07:59;16.20;73.00
21778;DHT22;11050;52.222;20.916;2023-05-27T08:10:26;16.30;72.80
21778;DHT22;11050;52.222;20.916;2023-05-27T08:12:51;16.40;72.50
21778;DHT22;11050;52.222;20.916;2023-05-27T08:15:17;16.50;72.00
21778;DHT22;11050;52.222;20.916;2023-05-27T08:17:43;16.60;72.00
21778;DHT22;11050;52.222;20.916;2023-05-27T08:20:10;16.80;70.00
21778;DHT22;11050;52.222;20.916;2023-05-27T08:22:36;16.90;69.00
21778;DHT22;11050;52.222;20.916;2023-05-27T08:25:03;17.00;67.00
21778;DHT22;11050;52.222;20.916;2023-05-27T08:27:52;17.10;67.20
21778;DHT22;11050;52.222;20.916;2023-05-27T08:30:19;17.10;64.30
21778;DHT22;11050;52.222;20.916;2023-05-27T08:32:46;17.20;63.30
21778;DHT22;11050;52.222;20.916;2023-05-27T08:35:12;17.30;65.30
21778;DHT22;11050;52.222;20.916;2023-05-27T08:37:38;17.30;60.60
21778;DHT22;11050;52.222;20.916;2023-05-27T08:40:09;17.30;61.60
21778;DHT22;11050;52.222;20.916;2023-05-27T08:42:40;17.30;60.20
21778;DHT22;11050;52.222;20.916;2023-05-27T08:45:07;17.40;60.80
21778;DHT22;11050;52.222;20.916;2023-05-27T08:47:33;17.50;60.50
21778;DHT22;11050;52.222;20.916;2023-05-27T08:49:59;17.60;59.20
21778;DHT22;11050;52.222;20.916;2023-05-27T08:52:27;17.70;56.60
21778;DHT22;11050;52.222;20.916;2023-05-27T08:54:57;17.70;54.90
21778;DHT22;11050;52.222;20.916;2023-05-27T08:57:31;17.70;52.50
21778;DHT22;11050;52.222;20.916;2023-05-27T08:59:58;17.70;52.80
21778;DHT22;11050;52.222;20.916;2023-05-27T09:02:24;17.80;51.40
21778;DHT22;11050;52.222;20.916;2023-05-27T09:04:52;17.70;50.30
21778;DHT22;11050;52.222;20.916;2023-05-27T09:07:21;17.80;51.50
21778;DHT22;11050;52.222;20.916;2023-05-27T09:09:57;17.80;52.10
21778;DHT22;11050;52.222;20.916;2023-05-27T09:12:24;17.90;53.30
21778;DHT22;11050;52.222;20.916;2023-05-27T09:14:52;18.00;52.60
21778;DHT22;11050;52.222;20.916;2023-05-27T09:17:22;18.10;53.60
21778;DHT22;11050;52.222;20.916;2023-05-27T09:19:53;18.30;52.50
21778;DHT22;11050;52.222;20.916;2023-05-27T09:22:24;18.40;50.70
21778;DHT22;11050;52.222;20.916;2023-05-27T09:24:54;18.40;46.80
21778;DHT22;11050;52.222;20.916;2023-05-27T09:27:31;18.40;49.10
21778;DHT22;11050;52.222;20.916;2023-05-27T09:30:05;18.40;48.50
21778;DHT22;11050;52.222;20.916;2023-05-27T09:32:32;18.60;49.60
21778;DHT22;11050;52.222;20.916;2023-05-27T09:35:00;18.70;49.70
21778;DHT22;11050;52.222;20.916;2023-05-27T09:37:28;18.80;50.30
21778;DHT22;11050;52.222;20.916;2023-05-27T09:42:41;19.00;47.40
21778;DHT22;11050;52.222;20.916;2023-05-27T09:45:12;19.10;47.10
21778;DHT22;11050;52.222;20.916;2023-05-27T09:47:48;19.20;48.00
21778;DHT22;11050;52.222;20.916;2023-05-27T09:50:18;19.30;47.70
21778;DHT22;11050;52.222;20.916;2023-05-27T09:52:46;19.30;45.10
21778;DHT22;11050;52.222;20.916;2023-05-27T09:55:13;19.40;44.30
21778;DHT22;11050;52.222;20.916;2023-05-27T09:57:41;19.40;44.80
21778;DHT22;11050;52.222;20.916;2023-05-27T10:00:08;19.50;44.40
21778;DHT22;11050;52.222;20.916;2023-05-27T10:02:40;19.50;45.30
21778;DHT22;11050;52.222;20.916;2023-05-27T10:05:08;19.60;45.90
21778;DHT22;11050;52.222;20.916;2023-05-27T10:07:38;19.70;44.00
21778;DHT22;11050;52.222;20.916;2023-05-27T10:10:09;19.70;44.50
21778;DHT22;11050;52.222;20.916;2023-05-27T10:12:38;19.80;45.50
21778;DHT22;11050;52.222;20.916;2023-05-27T10:15:05;19.80;42.20
21778;DHT22;11050;52.222;20.916;2023-05-27T10:17:54;19.90;42.40
21778;DHT22;11050;52.222;20.916;2023-05-27T10:20:36;19.90;41.90
21778;DHT22;11050;52.222;20.916;2023-05-27T10:23:16;20.00;45.40
21778;DHT22;11050;52.222;20.916;2023-05-27T10:25:53;20.20;41.50
21778;DHT22;11050;52.222;20.916;2023-05-27T10:31:28;20.40;41.10
21778;DHT22;11050;52.222;20.916;2023-05-27T10:33:57;20.60;42.50
21778;DHT22;11050;52.222;20.916;2023-05-27T10:36:26;20.70;40.90
21778;DHT22;11050;52.222;20.916;2023-05-27T10:38:58;20.80;37.80
21778;DHT22;11050;52.222;20.916;2023-05-27T10:41:26;20.80;36.20
21778;DHT22;11050;52.222;20.916;2023-05-27T10:43:58;20.90;38.10
21778;DHT22;11050;52.222;20.916;2023-05-27T10:46:25;20.90;35.50
21778;DHT22;11050;52.222;20.916;2023-05-27T10:48:52;21.00;37.90
21778;DHT22;11050;52.222;20.916;2023-05-27T10:51:17;21.10;37.20
21778;DHT22;11050;52.222;20.916;2023-05-27T10:53:43;21.20;37.60
21778;DHT22;11050;52.222;20.916;2023-05-27T10:56:09;21.30;40.00
21778;DHT22;11050;52.222;20.916;2023-05-27T10:58:37;21.50;39.20
21778;DHT22;11050;52.222;20.916;2023-05-27T11:01:11;21.60;35.60
21778;DHT22;11050;52.222;20.916;2023-05-27T11:03:44;21.70;35.00
21778;DHT22;11050;52.222;20.916;2023-05-27T11:06:11;21.80;35.80
21778;DHT22;11050;52.222;20.916;2023-05-27T11:08:38;21.90;37.90
21778;DHT22;11050;52.222;20.916;2023-05-27T11:11:09;22.10;36.00
21778;DHT22;11050;52.222;20.916;2023-05-27T11:16:11;22.50;35.40
21778;DHT22;11050;52.222;20.916;2023-05-27T11:18:44;22.70;35.30
21778;DHT22;11050;52.222;20.916;2023-05-27T11:21:12;22.90;31.80
21778;DHT22;11050;52.222;20.916;2023-05-27T11:23:43;22.90;34.50
21778;DHT22;11050;52.222;20.916;2023-05-27T11:26:20;23.00;34.40
21778;DHT22;11050;52.222;20.916;2023-05-27T11:28:51;23.10;34.20
21778;DHT22;11050;52.222;20.916;2023-05-27T11:31:30;23.20;33.10
21778;DHT22;11050;52.222;20.916;2023-05-27T11:33:56;23.30;32.80
21778;DHT22;11050;52.222;20.916;2023-05-27T11:36:26;23.40;30.00
21778;DHT22;11050;52.222;20.916;2023-05-27T11:39:02;23.40;32.70
21778;DHT22;11050;52.222;20.916;2023-05-27T11:41:30;23.60;32.80
21778;DHT22;11050;52.222;20.916;2023-05-27T11:43:59;23.80;30.50
21778;DHT22;11050;52.222;20.916;2023-05-27T11:46:43;23.90;30.10
21778;DHT22;11050;52.222;20.916;2023-05-27T11:49:12;24.10;31.30
21778;DHT22;11050;52.222;20.916;2023-05-27T11:54:26;24.50;30.00
21778;DHT22;11050;52.222;20.916;2023-05-27T11:56:57;24.60;30.90
21778;DHT22;11050;52.222;20.916;2023-05-27T11:59:25;24.80;29.60
21778;DHT22;11050;52.222;20.916;2023-05-27T12:01:52;25.00;29.70
21778;DHT22;11050;52.222;20.916;2023-05-27T12:04:21;25.30;28.40
21778;DHT22;11050;52.222;20.916;2023-05-27T12:06:46;25.50;27.70
21778;DHT22;11050;52.222;20.916;2023-05-27T12:09:13;25.60;26.70
21778;DHT22;11050;52.222;20.916;2023-05-27T12:11:40;25.70;26.60
21778;DHT22;11050;52.222;20.916;2023-05-27T12:14:06;25.70;28.10
21778;DHT22;11050;52.222;20.916;2023-05-27T12:16:32;25.80;27.90
21778;DHT22;11050;52.222;20.916;2023-05-27T12:18:58;26.00;26.60
21778;DHT22;11050;52.222;20.916;2023-05-27T12:21:24;26.00;27.00
21778;DHT22;11050;52.222;20.916;2023-05-27T12:23:51;26.00;26.30
21778;DHT22;11050;52.222;20.916;2023-05-27T12:26:17;26.20;26.20
21778;DHT22;11050;52.222;20.916;2023-05-27T12:28:43;26.40;25.90
21778;DHT22;11050;52.222;20.916;2023-05-27T12:31:09;26.30;26.00
21778;DHT22;11050;52.222;20.916;2023-05-27T12:33:35;26.40;26.80
21778;DHT22;11050;52.222;20.916;2023-05-27T12:36:01;26.50;27.00
21778;DHT22;11050;52.222;20.916;2023-05-27T12:38:28;26.70;26.50
21778;DHT22;11050;52.222;20.916;2023-05-27T12:40:54;26.80;25.90
21778;DHT22;11050;52.222;20.916;2023-05-27T12:43:21;27.00;25.10
21778;DHT22;11050;52.222;20.916;2023-05-27T12:45:48;27.00;26.60
21778;DHT22;11050;52.222;20.916;2023-05-27T12:48:14;27.20;27.80
21778;DHT22;11050;52.222;20.916;2023-05-27T12:50:40;27.30;26.60
21778;DHT22;11050;52.222;20.916;2023-05-27T12:53:08;27.60;26.40
21778;DHT22;11050;52.222;20.916;2023-05-27T12:55:34;27.80;25.30
21778;DHT22;11050;52.222;20.916;2023-05-27T12:58:00;27.90;25.50
21778;DHT22;11050;52.222;20.916;2023-05-27T13:00:27;28.20;24.60
21778;DHT22;11050;52.222;20.916;2023-05-27T13:02:53;28.30;23.80
21778;DHT22;11050;52.222;20.916;2023-05-27T13:05:19;28.10;25.60
21778;DHT22;11050;52.222;20.916;2023-05-27T13:10:23;28.30;24.00
21778;DHT22;11050;52.222;20.916;2023-05-27T13:12:49;28.20;23.90
21778;DHT22;11050;52.222;20.916;2023-05-27T13:15:15;28.10;23.00
21778;DHT22;11050;52.222;20.916;2023-05-27T13:17:43;27.90;24.70
21778;DHT22;11050;52.222;20.916;2023-05-27T13:20:10;27.80;23.70
21778;DHT22;11050;52.222;20.916;2023-05-27T13:22:36;27.80;23.50
21778;DHT22;11050;52.222;20.916;2023-05-27T13:25:03;27.80;25.00
21778;DHT22;11050;52.222;20.916;2023-05-27T13:27:30;27.90;26.30
21778;DHT22;11050;52.222;20.916;2023-05-27T13:29:55;28.00;25.00
21778;DHT22;11050;52.222;20.916;2023-05-27T13:32:21;28.20;25.10
21778;DHT22;11050;52.222;20.916;2023-05-27T13:34:47;28.40;25.10
21778;DHT22;11050;52.222;20.916;2023-05-27T13:37:13;28.70;25.50
21778;DHT22;11050;52.222;20.916;2023-05-27T13:39:39;29.00;24.30
21778;DHT22;11050;52.222;20.916;2023-05-27T13:42:08;29.20;24.20
21778;DHT22;11050;52.222;20.916;2023-05-27T13:44:35;29.30;23.60
21778;DHT22;11050;52.222;20.916;2023-05-27T13:47:01;29.00;24.00
21778;DHT22;11050;52.222;20.916;2023-05-27T13:49:27;29.10;24.30
21778;DHT22;11050;52.222;20.916;2023-05-27T13:51:53;29.10;24.30
21778;DHT22;11050;52.222;20.916;2023-05-27T13:54:18;29.40;23.10
21778;DHT22;11050;52.222;20.916;2023-05-27T13:56:44;29.20;24.50
21778;DHT22;11050;52.222;20.916;2023-05-27T13:59:11;29.30;23.70
21778;DHT22;11050;52.222;20.916;2023-05-27T14:01:38;29.40;23.00
21778;DHT22;11050;52.222;20.916;2023-05-27T14:04:04;29.20;23.10
21778;DHT22;11050;52.222;20.916;2023-05-27T14:06:30;29.10;23.20
21778;DHT22;11050;52.222;20.916;2023-05-27T14:08:56;29.00;23.50
21778;DHT22;11050;52.222;20.916;2023-05-27T14:11:22;29.00;24.40
21778;DHT22;11050;52.222;20.916;2023-05-27T14:13:49;29.10;24.40
21778;DHT22;11050;52.222;20.916;2023-05-27T14:16:15;29.10;23.20
21778;DHT22;11050;52.222;20.916;2023-05-27T14:18:41;29.10;23.40
21778;DHT22;11050;52.222;20.916;2023-05-27T14:21:08;29.30;23.60
21778;DHT22;11050;52.222;20.916;2023-05-27T14:23:34;29.40;23.50
21778;DHT22;11050;52.222;20.916;2023-05-27T14:26:00;29.60;23.10
21778;DHT22;11050;52.222;20.916;2023-05-27T14:28:26;29.70;23.90
21778;DHT22;11050;52.222;20.916;2023-05-27T14:30:52;29.90;23.50
21778;DHT22;11050;52.222;20.916;2023-05-27T14:33:18;30.00;22.80
21778;DHT22;11050;52.222;20.916;2023-05-27T14:35:44;29.90;23.20
21778;DHT22;11050;52.222;20.916;2023-05-27T14:38:10;30.00;23.70
21778;DHT22;11050;52.222;20.916;2023-05-27T14:40:38;30.10;23.50
21778;DHT22;11050;52.222;20.916;2023-05-27T14:43:03;30.00;23.70
21778;DHT22;11050;52.222;20.916;2023-05-27T14:45:29;30.00;23.70
21778;DHT22;11050;52.222;20.916;2023-05-27T14:47:55;30.00;23.80
21778;DHT22;11050;52.222;20.916;2023-05-27T14:50:22;30.20;23.50
21778;DHT22;11050;52.222;20.916;2023-05-27T14:52:52;30.30;23.40
21778;DHT22;11050;52.222;20.916;2023-05-27T14:55:19;30.30;23.90
21778;DHT22;11050;52.222;20.916;2023-05-27T14:57:46;30.40;23.10
21778;DHT22;11050;52.222;20.916;2023-05-27T15:00:11;30.50;23.30
21778;DHT22;11050;52.222;20.916;2023-05-27T15:02:38;30.40;23.10
21778;DHT22;11050;52.222;20.916;2023-05-27T15:05:05;30.40;23.10
21778;DHT22;11050;52.222;20.916;2023-05-27T15:07:32;30.40;23.00
21778;DHT22;11050;52.222;20.916;2023-05-27T15:09:59;30.30;23.00
21778;DHT22;11050;52.222;20.916;2023-05-27T15:12:25;30.40;23.00
21778;DHT22;11050;52.222;20.916;2023-05-27T15:14:53;30.50;23.10
21778;DHT22;11050;52.222;20.916;2023-05-27T15:17:18;30.60;21.70
21778;DHT22;11050;52.222;20.916;2023-05-27T15:19:45;30.50;21.70
21778;DHT22;11050;52.222;20.916;2023-05-27T15:22:10;30.30;21.90
21778;DHT22;11050;52.222;20.916;2023-05-27T15:24:36;30.20;21.80
21778;DHT22;11050;52.222;20.916;2023-05-27T15:27:02;30.00;23.20
21778;DHT22;11050;52.222;20.916;2023-05-27T15:29:28;29.90;22.80
21778;DHT22;11050;52.222;20.916;2023-05-27T15:31:54;29.90;22.20
21778;DHT22;11050;52.222;20.916;2023-05-27T15:34:20;29.70;22.90
21778;DHT22;11050;52.222;20.916;2023-05-27T15:36:46;29.80;23.80
21778;DHT22;11050;52.222;20.916;2023-05-27T15:39:11;29.90;23.00